createdAt,value
2022-10-21T00:01:31.617Z,38.17
2022-10-21T00:03:58.371Z,37.35
2022-10-21T00:06:24.939Z,40.67
2022-10-21T00:08:51.633Z,43.80
2022-10-21T00:11:18.212Z,34.70
2022-10-21T00:13:44.760Z,41.60
2022-10-21T00:16:14.269Z,34.88
2022-10-21T00:18:42.613Z,40.42
2022-10-21T00:21:12.223Z,41.50
2022-10-21T00:23:38.840Z,41.70
2022-10-21T00:26:06.164Z,32.33
2022-10-21T00:28:33.180Z,30.77
2022-10-21T00:31:00.847Z,34.47
2022-10-21T00:33:28.780Z,37.60
2022-10-21T00:36:03.947Z,40.13
2022-10-21T00:40:57.676Z,32.70
2022-10-21T00:43:25.284Z,37.33
2022-10-21T00:46:01.525Z,43.75
2022-10-21T00:48:39.078Z,43.13
2022-10-21T00:51:12.972Z,33.70
2022-10-21T00:53:44.001Z,47.63
2022-10-21T00:56:16.469Z,33.20
2022-10-21T00:58:45.260Z,34.55
2022-10-21T01:01:11.916Z,32.20
2022-10-21T01:03:38.757Z,32.08
2022-10-21T01:06:10.488Z,29.02
2022-10-21T01:08:38.105Z,30.77
2022-10-21T01:11:11.428Z,27.42
2022-10-21T01:13:58.360Z,22.98
2022-10-21T01:16:42.086Z,24.90
2022-10-21T01:19:38.867Z,35.17
2022-10-21T01:22:24.156Z,28.17
2022-10-21T01:25:09.709Z,31.77
2022-10-21T01:30:24.365Z,30.30
2022-10-21T01:33:28.526Z,23.85
2022-10-21T01:36:01.238Z,30.10
2022-10-21T01:38:46.806Z,31.13
2022-10-21T01:44:07.655Z,25.90
2022-10-21T01:46:46.141Z,27.35
2022-10-21T01:49:36.617Z,28.23
2022-10-21T01:52:04.057Z,24.45
2022-10-21T01:54:41.353Z,29.92
2022-10-21T01:57:08.784Z,25.27
2022-10-21T01:59:35.905Z,23.55
2022-10-21T02:02:05.523Z,28.98
2022-10-21T02:04:35.470Z,29.13
2022-10-21T02:07:02.468Z,31.73
2022-10-21T02:09:29.211Z,32.50
2022-10-21T02:11:59.268Z,31.98
2022-10-21T02:14:32.163Z,41.08
2022-10-21T02:17:00.051Z,26.98
2022-10-21T02:19:28.101Z,30.98
2022-10-21T02:21:58.652Z,29.05
2022-10-21T02:24:28.228Z,30.48
2022-10-21T02:26:55.128Z,28.15
2022-10-21T02:29:26.661Z,30.90
2022-10-21T02:32:03.575Z,29.70
2022-10-21T02:34:54.067Z,31.40
2022-10-21T02:37:46.124Z,32.92
2022-10-21T02:40:18.715Z,28.83
2022-10-21T02:42:51.304Z,32.30
2022-10-21T02:45:19.059Z,30.55
2022-10-21T02:47:48.189Z,32.67
2022-10-21T02:50:14.950Z,27.83
2022-10-21T02:52:41.506Z,29.88
2022-10-21T02:55:08.648Z,30.13
2022-10-21T02:57:35.390Z,30.58
2022-10-21T03:00:02.209Z,30.45
2022-10-21T03:02:28.803Z,25.70
2022-10-21T03:04:55.358Z,32.45
2022-10-21T03:07:21.875Z,35.80
2022-10-21T03:09:48.424Z,26.67
2022-10-21T03:12:15.057Z,27.63
2022-10-21T03:14:41.596Z,24.77
2022-10-21T03:17:08.193Z,26.92
2022-10-21T03:19:34.916Z,28.33
2022-10-21T03:22:01.459Z,31.10
2022-10-21T03:24:28.995Z,25.45
2022-10-21T03:26:56.760Z,28.25
2022-10-21T03:29:23.603Z,28.33
2022-10-21T03:31:50.191Z,26.67
2022-10-21T03:34:16.842Z,27.73
2022-10-21T03:36:43.450Z,24.77
2022-10-21T03:39:11.652Z,23.83
2022-10-21T03:41:38.475Z,25.00
2022-10-21T03:44:05.372Z,24.65
2022-10-21T03:46:32.539Z,26.05
2022-10-21T03:49:03.026Z,38.33
2022-10-21T03:51:31.061Z,30.13
2022-10-21T03:53:57.971Z,30.20
2022-10-21T03:56:24.666Z,25.63
2022-10-21T03:58:53.975Z,36.40
2022-10-21T04:01:24.624Z,25.75
2022-10-21T04:03:51.316Z,36.35
2022-10-21T04:06:18.095Z,25.75
2022-10-21T04:08:44.863Z,31.67
2022-10-21T04:11:11.680Z,29.55
2022-10-21T04:13:38.248Z,35.30
2022-10-21T04:16:08.844Z,36.97
2022-10-21T04:18:35.619Z,39.20
2022-10-21T04:21:02.301Z,36.58
2022-10-21T04:23:28.975Z,36.33
2022-10-21T04:25:55.662Z,37.88
2022-10-21T04:28:22.280Z,37.47
2022-10-21T04:30:50.125Z,39.10
2022-10-21T04:33:16.749Z,41.55
2022-10-21T04:35:43.515Z,31.35
2022-10-21T04:38:10.587Z,28.73
2022-10-21T04:40:37.133Z,28.80
2022-10-21T04:43:03.833Z,36.25
2022-10-21T04:45:30.499Z,32.65
2022-10-21T04:47:57.036Z,29.52
2022-10-21T04:50:23.752Z,32.05
2022-10-21T04:52:50.324Z,33.80
2022-10-21T04:55:17.020Z,30.15
2022-10-21T04:57:43.536Z,32.35
2022-10-21T05:00:10.904Z,32.13
2022-10-21T05:02:37.576Z,39.53
2022-10-21T05:05:04.854Z,34.92
2022-10-21T05:07:31.396Z,35.78
2022-10-21T05:09:57.920Z,32.25
2022-10-21T05:12:24.534Z,34.00
2022-10-21T05:14:51.134Z,25.50
2022-10-21T05:17:17.720Z,30.20
2022-10-21T05:19:44.243Z,27.15
2022-10-21T05:22:12.272Z,32.15
2022-10-21T05:24:39.029Z,29.45
2022-10-21T05:27:05.593Z,29.30
2022-10-21T05:29:32.216Z,25.83
2022-10-21T05:31:58.748Z,28.73
2022-10-21T05:34:25.466Z,30.50
2022-10-21T05:36:52.063Z,29.55
2022-10-21T05:39:18.568Z,30.02
2022-10-21T05:41:47.846Z,28.85
2022-10-21T05:44:15.233Z,25.65
2022-10-21T05:46:41.889Z,29.63
2022-10-21T05:49:08.569Z,24.48
2022-10-21T05:51:35.099Z,23.45
2022-10-21T05:54:03.810Z,24.90
2022-10-21T05:56:31.022Z,26.23
2022-10-21T05:58:57.765Z,30.05
2022-10-21T06:01:24.531Z,29.65
2022-10-21T06:03:51.723Z,26.63
2022-10-21T06:06:18.555Z,29.25
2022-10-21T06:08:45.163Z,29.83
2022-10-21T06:11:15.183Z,24.52
2022-10-21T06:13:42.643Z,30.85
2022-10-21T06:16:10.153Z,26.42
2022-10-21T06:18:37.615Z,33.72
2022-10-21T06:21:04.896Z,22.67
2022-10-21T06:23:31.791Z,27.92
2022-10-21T06:26:05.605Z,20.80
2022-10-21T06:28:34.575Z,31.85
2022-10-21T06:31:01.444Z,28.25
2022-10-21T06:33:28.535Z,29.80
2022-10-21T06:35:55.813Z,23.08
2022-10-21T06:38:23.178Z,27.98
2022-10-21T06:40:49.776Z,27.50
2022-10-21T06:43:19.492Z,30.17
2022-10-21T06:45:46.206Z,31.30
2022-10-21T06:48:13.664Z,29.92
2022-10-21T06:50:40.413Z,31.35
2022-10-21T06:53:07.316Z,31.60
2022-10-21T06:55:33.946Z,27.00
2022-10-21T06:58:00.476Z,33.35
2022-10-21T07:00:27.211Z,26.23
2022-10-21T07:02:53.862Z,33.60
2022-10-21T07:05:20.614Z,31.05
2022-10-21T07:07:47.229Z,32.38
2022-10-21T07:10:13.760Z,29.27
2022-10-21T07:12:40.334Z,31.80
2022-10-21T07:15:07.398Z,30.67
2022-10-21T07:17:33.914Z,27.75
2022-10-21T07:20:00.530Z,33.55
2022-10-21T07:22:27.109Z,22.80
2022-10-21T07:24:53.772Z,27.40
2022-10-21T07:27:20.470Z,30.55
2022-10-21T07:29:47.314Z,24.42
2022-10-21T07:32:13.908Z,32.63
2022-10-21T07:34:40.639Z,30.02
2022-10-21T07:37:07.312Z,26.40
2022-10-21T07:39:34.963Z,21.80
2022-10-21T07:42:01.755Z,23.88
2022-10-21T07:44:28.460Z,27.08
2022-10-21T07:46:55.170Z,21.83
2022-10-21T07:49:22.929Z,22.02
2022-10-21T07:51:50.449Z,29.65
2022-10-21T07:54:18.235Z,23.40
2022-10-21T07:56:47.588Z,28.92
2022-10-21T07:59:15.434Z,30.38
2022-10-21T08:01:47.317Z,25.13
2022-10-21T08:04:17.847Z,30.08
2022-10-21T08:06:46.323Z,21.02
2022-10-21T08:09:13.761Z,25.67
2022-10-21T08:11:40.632Z,29.58
2022-10-21T08:14:08.813Z,25.13
2022-10-21T08:16:36.300Z,24.65
2022-10-21T08:19:03.817Z,29.20
2022-10-21T08:21:31.163Z,31.23
2022-10-21T08:23:58.797Z,26.50
2022-10-21T08:26:25.375Z,26.95
2022-10-21T08:28:52.202Z,20.90
2022-10-21T08:31:21.508Z,23.98
2022-10-21T08:33:49.037Z,28.38
2022-10-21T08:36:21.814Z,30.23
2022-10-21T08:38:49.183Z,21.73
2022-10-21T08:41:31.912Z,24.92
2022-10-21T08:44:22.707Z,27.30
2022-10-21T08:46:58.147Z,20.50
2022-10-21T08:49:30.949Z,26.42
2022-10-21T08:52:05.733Z,17.35
2022-10-21T08:54:59.577Z,24.33
2022-10-21T08:57:27.274Z,20.00
2022-10-21T08:59:54.539Z,19.58
2022-10-21T09:02:43.502Z,19.75
2022-10-21T09:08:02.267Z,23.55
2022-10-21T09:10:39.193Z,21.77
2022-10-21T09:13:32.812Z,25.35
2022-10-21T09:16:05.735Z,19.48
2022-10-21T09:18:49.280Z,22.83
2022-10-21T09:21:27.976Z,22.50
2022-10-21T09:24:18.274Z,20.85
2022-10-21T09:26:48.749Z,28.95
2022-10-21T09:29:15.469Z,25.92
2022-10-21T09:31:43.987Z,21.38
2022-10-21T09:34:33.075Z,28.55
2022-10-21T09:37:01.060Z,26.63
2022-10-21T09:39:38.795Z,21.27
2022-10-21T09:42:18.154Z,23.05
2022-10-21T09:44:53.360Z,23.42
2022-10-21T09:47:24.356Z,23.48
2022-10-21T09:50:13.306Z,23.83
2022-10-21T09:52:40.816Z,24.67
2022-10-21T09:55:13.718Z,25.23
2022-10-21T09:57:58.128Z,22.50
2022-10-21T10:00:46.815Z,32.65
2022-10-21T10:03:28.718Z,22.35
2022-10-21T10:05:55.308Z,21.52
2022-10-21T10:08:29.131Z,21.48
2022-10-21T10:11:22.226Z,26.63
2022-10-21T10:13:51.317Z,26.42
2022-10-21T10:16:17.914Z,27.85
2022-10-21T10:18:45.512Z,20.60
2022-10-21T10:21:18.147Z,22.38
2022-10-21T10:23:47.739Z,21.17
2022-10-21T10:26:20.594Z,18.35
2022-10-21T10:29:22.463Z,29.48
2022-10-21T10:31:56.708Z,25.73
2022-10-21T10:34:38.549Z,17.58
2022-10-21T10:37:17.393Z,16.30
2022-10-21T10:39:48.017Z,17.90
2022-10-21T10:42:24.912Z,20.88
2022-10-21T10:44:55.898Z,23.15
2022-10-21T10:47:30.452Z,26.10
2022-10-21T10:49:57.337Z,22.05
2022-10-21T10:52:25.408Z,20.33
2022-10-21T10:55:16.234Z,19.73
2022-10-21T10:58:06.122Z,15.95
2022-10-21T11:00:42.491Z,19.05
2022-10-21T11:03:16.855Z,15.23
2022-10-21T11:05:51.040Z,17.17
2022-10-21T11:08:41.257Z,15.35
2022-10-21T11:11:15.049Z,17.98
2022-10-21T11:13:42.378Z,19.10
2022-10-21T11:17:00.672Z,20.15
2022-10-21T11:19:40.024Z,16.92
2022-10-21T11:22:21.458Z,17.58
2022-10-21T11:25:13.280Z,10.52
2022-10-21T11:28:13.316Z,6.07
2022-10-21T11:31:15.094Z,6.97
2022-10-21T11:34:08.451Z,9.85
2022-10-21T11:37:23.801Z,8.55
2022-10-21T11:40:05.566Z,5.32
2022-10-21T11:43:05.529Z,7.63
2022-10-21T11:46:07.485Z,5.88
2022-10-21T11:48:55.531Z,5.18
2022-10-21T11:51:40.628Z,5.25
2022-10-21T11:54:35.568Z,6.20
2022-10-21T11:57:14.888Z,6.55
2022-10-21T12:00:00.325Z,5.80
2022-10-21T12:05:32.733Z,6.97
2022-10-21T12:08:15.376Z,6.18
2022-10-21T12:11:11.938Z,6.80
2022-10-21T12:13:57.580Z,5.35
2022-10-21T12:19:01.131Z,5.30
2022-10-21T12:21:29.796Z,5.75
2022-10-21T12:24:05.310Z,4.20
2022-10-21T12:29:05.580Z,4.68
2022-10-21T12:31:37.435Z,6.32
2022-10-21T12:34:05.471Z,7.45
2022-10-21T12:36:48.570Z,3.90
2022-10-21T12:39:33.372Z,3.20
2022-10-21T12:42:13.548Z,2.97
2022-10-21T12:44:49.166Z,3.80
2022-10-21T12:47:28.815Z,4.75
2022-10-21T12:50:17.758Z,2.65
2022-10-21T12:52:45.959Z,3.25
2022-10-21T12:55:27.216Z,2.58
2022-10-21T12:58:00.414Z,5.63
2022-10-21T13:00:29.816Z,2.70
2022-10-21T13:02:59.456Z,1.77
2022-10-21T13:05:38.431Z,3.05
2022-10-21T13:08:20.005Z,2.17
2022-10-21T13:11:05.189Z,2.20
2022-10-21T13:13:40.908Z,1.67
2022-10-21T13:16:19.766Z,2.90
2022-10-21T13:18:52.507Z,3.03
2022-10-21T13:21:38.906Z,5.03
2022-10-21T13:24:30.179Z,4.40
2022-10-21T13:27:03.441Z,4.68
2022-10-21T13:29:46.929Z,4.10
2022-10-21T13:32:19.389Z,1.58
2022-10-21T13:34:55.155Z,1.20
2022-10-21T13:37:34.527Z,2.13
2022-10-21T13:40:04.897Z,4.90
2022-10-21T13:42:36.670Z,4.63
2022-10-21T13:45:17.878Z,2.30
2022-10-21T13:47:45.777Z,3.47
2022-10-21T13:50:18.696Z,1.83
2022-10-21T13:52:45.396Z,2.72
2022-10-21T13:55:21.985Z,3.85
2022-10-21T13:57:50.531Z,3.22
2022-10-21T14:00:26.550Z,5.30
2022-10-21T14:03:05.225Z,2.47
2022-10-21T14:05:36.651Z,4.40
2022-10-21T14:08:05.464Z,3.55
2022-10-21T14:10:32.325Z,3.13
2022-10-21T14:15:41.796Z,6.25
2022-10-21T14:18:08.608Z,1.75
2022-10-21T14:20:37.808Z,5.68
2022-10-21T14:23:08.277Z,3.38
2022-10-21T14:25:35.149Z,2.08
2022-10-21T14:28:04.205Z,4.95
2022-10-21T14:30:33.411Z,3.25
2022-10-21T14:33:04.006Z,7.72
2022-10-21T14:35:31.179Z,5.70
2022-10-21T14:38:00.400Z,4.18
2022-10-21T14:40:34.486Z,4.78
2022-10-21T14:43:18.880Z,3.45
2022-10-21T14:45:53.699Z,7.75
2022-10-21T14:48:28.130Z,5.80
2022-10-21T14:51:00.954Z,4.97
2022-10-21T14:53:33.194Z,2.58
2022-10-21T14:56:02.933Z,3.35
2022-10-21T14:58:34.433Z,7.03
2022-10-21T15:01:16.475Z,3.33
2022-10-21T15:03:46.680Z,5.88
2022-10-21T15:06:17.205Z,4.05
2022-10-21T15:08:56.090Z,3.95
2022-10-21T15:11:38.856Z,4.47
2022-10-21T15:14:16.912Z,6.97
2022-10-21T15:16:50.488Z,7.03
2022-10-21T15:19:37.844Z,5.18
2022-10-21T15:22:05.768Z,5.32
2022-10-21T15:24:43.889Z,4.63
2022-10-21T15:27:32.821Z,3.15
2022-10-21T15:30:34.885Z,3.08
2022-10-21T15:33:01.582Z,7.93
2022-10-21T15:35:28.271Z,3.30
2022-10-21T15:37:55.088Z,4.55
2022-10-21T15:40:22.832Z,5.45
2022-10-21T15:42:49.879Z,5.38
2022-10-21T15:45:22.005Z,3.47
2022-10-21T15:47:53.237Z,2.97
2022-10-21T15:50:22.460Z,4.57
2022-10-21T15:52:49.368Z,4.63
2022-10-21T15:55:16.123Z,5.75
2022-10-21T15:57:43.225Z,3.08
2022-10-21T16:00:19.548Z,3.30
2022-10-21T16:02:47.958Z,3.95
2022-10-21T16:05:15.510Z,7.13
2022-10-21T16:07:42.915Z,4.88
2022-10-21T16:10:24.097Z,8.35
2022-10-21T16:12:50.816Z,4.15
2022-10-21T16:15:19.101Z,6.10
2022-10-21T16:17:49.285Z,8.80
2022-10-21T16:20:19.414Z,6.63
2022-10-21T16:22:46.119Z,4.55
2022-10-21T16:25:13.800Z,5.90
2022-10-21T16:27:55.818Z,6.15
2022-10-21T16:30:25.025Z,6.07
2022-10-21T16:32:52.428Z,6.95
2022-10-21T16:35:20.984Z,7.72
2022-10-21T16:37:48.635Z,8.65
2022-10-21T16:40:18.471Z,5.47
2022-10-21T16:42:45.257Z,5.80
2022-10-21T16:45:13.227Z,7.32
2022-10-21T16:47:47.849Z,5.93
2022-10-21T16:50:21.495Z,5.85
2022-10-21T16:52:48.199Z,8.65
2022-10-21T16:55:16.140Z,6.82
2022-10-21T16:57:43.274Z,6.40
2022-10-21T17:00:10.881Z,6.85
2022-10-21T17:02:40.405Z,3.60
2022-10-21T17:05:08.090Z,9.15
2022-10-21T17:07:34.712Z,12.73
2022-10-21T17:10:02.013Z,7.35
2022-10-21T17:12:31.224Z,9.60
2022-10-21T17:14:58.300Z,8.05
2022-10-21T17:17:25.168Z,8.98
2022-10-21T17:19:52.827Z,7.20
2022-10-21T17:22:20.073Z,8.25
2022-10-21T17:24:47.728Z,7.70
2022-10-21T17:27:18.739Z,8.23
2022-10-21T17:29:46.485Z,12.32
2022-10-21T17:32:13.336Z,9.95
2022-10-21T17:34:40.984Z,13.40
2022-10-21T17:37:09.365Z,9.80
2022-10-21T17:39:36.193Z,10.98
2022-10-21T17:42:03.630Z,10.07
2022-10-21T17:44:30.572Z,11.93
2022-10-21T17:46:57.289Z,12.68
2022-10-21T17:49:26.129Z,12.60
2022-10-21T17:51:53.030Z,11.23
2022-10-21T17:54:24.131Z,16.27
2022-10-21T17:56:56.810Z,9.13
2022-10-21T17:59:23.827Z,9.20
2022-10-21T18:01:50.564Z,11.63
2022-10-21T18:04:17.272Z,14.90
2022-10-21T18:06:44.139Z,12.75
2022-10-21T18:09:11.142Z,13.90
2022-10-21T18:11:37.942Z,12.63
2022-10-21T18:14:04.896Z,15.95
2022-10-21T18:16:31.967Z,18.67
2022-10-21T18:19:01.898Z,11.82
2022-10-21T18:21:30.373Z,12.52
2022-10-21T18:23:57.012Z,14.07
2022-10-21T18:26:26.787Z,12.73
2022-10-21T18:28:57.124Z,16.45
2022-10-21T18:31:26.076Z,9.45
2022-10-21T18:33:54.887Z,12.65
2022-10-21T18:36:22.102Z,9.00
2022-10-21T18:38:48.890Z,7.38
2022-10-21T18:41:20.078Z,13.15
2022-10-21T18:43:56.336Z,10.27
2022-10-21T18:48:50.666Z,8.13
2022-10-21T18:51:18.956Z,9.60
2022-10-21T18:53:49.885Z,8.77
2022-10-21T18:56:20.205Z,12.43
2022-10-21T18:58:46.876Z,11.38
2022-10-21T19:01:15.162Z,11.32
2022-10-21T19:03:42.422Z,12.52
2022-10-21T19:06:31.851Z,15.25
2022-10-21T19:09:01.033Z,11.05
2022-10-21T19:11:28.386Z,13.30
2022-10-21T19:13:55.303Z,11.65
2022-10-21T19:16:22.451Z,16.33
2022-10-21T19:18:49.184Z,14.60
2022-10-21T19:21:20.109Z,16.60
2022-10-21T19:23:47.112Z,12.77
2022-10-21T19:26:14.468Z,14.50
2022-10-21T19:28:41.172Z,15.38
2022-10-21T19:31:08.482Z,12.93
2022-10-21T19:33:35.155Z,14.88
2022-10-21T19:36:02.693Z,18.38
2022-10-21T19:38:45.034Z,14.80
2022-10-21T19:41:17.906Z,19.75
2022-10-21T19:43:44.995Z,14.68
2022-10-21T19:46:17.445Z,16.90
2022-10-21T19:48:46.693Z,15.65
2022-10-21T19:51:15.402Z,17.92
2022-10-21T19:53:43.826Z,18.88
2022-10-21T19:56:11.038Z,20.70
2022-10-21T19:58:43.449Z,16.02
2022-10-21T20:01:12.790Z,22.15
2022-10-21T20:03:41.329Z,23.63
2022-10-21T20:06:10.166Z,19.92
2022-10-21T20:08:39.755Z,12.82
2022-10-21T20:11:12.939Z,15.43
2022-10-21T20:13:40.227Z,16.70
2022-10-21T20:16:07.559Z,16.85
2022-10-21T20:18:34.404Z,14.27
2022-10-21T20:21:06.028Z,13.43
2022-10-21T20:23:32.763Z,12.65
2022-10-21T20:25:59.525Z,13.80
2022-10-21T20:28:27.344Z,17.27
2022-10-21T20:30:58.359Z,25.40
2022-10-21T20:33:25.452Z,11.32
2022-10-21T20:35:52.433Z,15.93
2022-10-21T20:38:19.173Z,11.73
2022-10-21T20:40:58.392Z,14.40
2022-10-21T20:43:25.498Z,18.33
2022-10-21T20:45:52.112Z,18.17
2022-10-21T20:48:18.812Z,15.80
2022-10-21T20:50:45.607Z,13.23
2022-10-21T20:53:12.132Z,19.35
2022-10-21T20:55:38.770Z,12.82
2022-10-21T20:58:05.392Z,10.43
2022-10-21T21:00:32.309Z,13.75
2022-10-21T21:02:59.995Z,14.73
2022-10-21T21:05:26.732Z,16.88
2022-10-21T21:07:53.462Z,16.83
2022-10-21T21:10:20.168Z,14.48
2022-10-21T21:12:46.882Z,16.45
2022-10-21T21:15:13.620Z,12.75
2022-10-21T21:17:40.208Z,11.82
2022-10-21T21:20:07.488Z,21.42
2022-10-21T21:22:36.496Z,15.82
2022-10-21T21:25:04.182Z,12.88
2022-10-21T21:27:30.872Z,13.60
2022-10-21T21:29:57.852Z,18.05
2022-10-21T21:32:24.706Z,14.02
2022-10-21T21:34:55.261Z,16.77
2022-10-21T21:37:22.764Z,21.65
2022-10-21T21:39:49.437Z,16.27
2022-10-21T21:42:16.140Z,18.80
2022-10-21T21:44:42.827Z,13.10
2022-10-21T21:47:09.807Z,14.07
2022-10-21T21:49:36.339Z,21.60
2022-10-21T21:52:02.991Z,18.80
2022-10-21T21:54:29.612Z,18.98
2022-10-21T21:57:26.430Z,19.98
2022-10-21T21:59:44.989Z,19.88
2022-10-21T22:02:11.546Z,15.48
2022-10-21T22:04:40.322Z,14.23
2022-10-21T22:07:06.930Z,16.08
2022-10-21T22:09:33.546Z,18.63
2022-10-21T22:12:01.116Z,13.27
2022-10-21T22:14:27.676Z,18.40
2022-10-21T22:16:54.237Z,14.70
2022-10-21T22:19:21.244Z,18.58
2022-10-21T22:21:47.889Z,14.35
2022-10-21T22:24:14.407Z,15.95
2022-10-21T22:26:41.061Z,16.40
2022-10-21T22:29:07.644Z,18.90
2022-10-21T22:31:34.209Z,12.98
2022-10-21T22:34:01.138Z,14.07
2022-10-21T22:36:28.418Z,14.48
2022-10-21T22:38:55.023Z,13.15
2022-10-21T22:41:21.718Z,13.68
2022-10-21T22:43:48.457Z,10.55
2022-10-21T22:46:33.549Z,13.00
2022-10-21T22:51:27.605Z,14.02
2022-10-21T22:53:56.646Z,14.90
2022-10-21T22:56:25.493Z,15.05
2022-10-21T22:58:52.168Z,11.65
2022-10-21T23:01:19.500Z,13.55
2022-10-21T23:03:46.037Z,10.70
2022-10-21T23:06:12.579Z,15.80
2022-10-21T23:08:39.224Z,14.35
2022-10-21T23:11:05.818Z,9.15
2022-10-21T23:13:32.443Z,15.15
2022-10-21T23:15:58.992Z,13.55
2022-10-21T23:18:25.716Z,14.88
2022-10-21T23:20:52.252Z,17.63
2022-10-21T23:23:18.820Z,8.82
2022-10-21T23:25:45.411Z,13.80
2022-10-21T23:28:12.151Z,13.90
2022-10-21T23:30:40.390Z,12.82
2022-10-21T23:33:06.938Z,9.45
2022-10-21T23:35:33.692Z,14.13
2022-10-21T23:38:00.455Z,14.70
2022-10-21T23:40:27.737Z,14.45
2022-10-21T23:42:55.049Z,11.10
2022-10-21T23:45:21.863Z,13.02
2022-10-21T23:47:48.483Z,11.48
2022-10-21T23:50:15.456Z,11.32
2022-10-21T23:52:42.092Z,13.77
2022-10-21T23:55:09.144Z,11.00
2022-10-21T23:57:35.872Z,11.45
